createdAt,value
2018-12-13T00:00:42.849Z,100634.41
2018-12-13T00:03:10.483Z,100632.70
2018-12-13T00:05:38.121Z,100633.43
2018-12-13T00:08:06.859Z,100628.50
2018-12-13T00:10:34.497Z,100639.43
2018-12-13T00:13:02.102Z,100629.20
2018-12-13T00:15:32.933Z,100626.45
2018-12-13T00:18:02.550Z,100626.85
2018-12-13T00:20:30.307Z,100624.61
2018-12-13T00:22:57.946Z,100620.60
2018-12-13T00:25:25.878Z,100621.05
2018-12-13T00:27:54.497Z,100623.19
2018-12-13T00:30:24.087Z,100620.94
2018-12-13T00:32:52.284Z,100616.84
2018-12-13T00:35:20.340Z,100618.55
2018-12-13T00:37:48.793Z,100614.61
2018-12-13T00:40:17.317Z,100614.16
2018-12-13T00:42:46.213Z,100610.66
2018-12-13T00:45:14.169Z,100602.75
2018-12-13T00:47:44.768Z,100598.80
2018-12-13T00:50:15.306Z,100600.06
2018-12-13T00:52:43.264Z,100600.06
2018-12-13T00:55:11.918Z,100595.23
2018-12-13T00:57:39.501Z,100590.36
2018-12-13T01:00:07.647Z,100591.28
2018-12-13T01:02:35.294Z,100597.09
2018-12-13T01:05:02.981Z,100590.70
2018-12-13T01:07:30.626Z,100585.15
2018-12-13T01:09:58.532Z,100585.05
2018-12-13T01:12:26.142Z,100583.25
2018-12-13T01:14:54.781Z,100582.38
2018-12-13T01:17:22.370Z,100594.13
2018-12-13T01:19:50.413Z,100584.27
2018-12-13T01:22:19.656Z,100581.73
2018-12-13T01:24:49.653Z,100585.53
2018-12-13T01:27:17.550Z,100585.91
2018-12-13T01:29:45.300Z,100583.75
2018-12-13T01:32:13.653Z,100579.83
2018-12-13T01:34:41.769Z,100583.17
2018-12-13T01:37:09.409Z,100585.11
2018-12-13T01:39:37.018Z,100584.33
2018-12-13T01:42:05.025Z,100577.35
2018-12-13T01:44:33.219Z,100577.88
2018-12-13T01:47:02.065Z,100582.74
2018-12-13T01:49:31.297Z,100589.47
2018-12-13T01:51:58.871Z,100585.70
2018-12-13T01:54:26.432Z,100579.87
2018-12-13T01:56:55.001Z,100589.42
2018-12-13T01:59:22.600Z,100585.39
2018-12-13T02:01:54.864Z,100587.67
2018-12-13T02:04:24.734Z,100580.45
2018-12-13T02:06:58.525Z,100579.30
2018-12-13T02:09:22.773Z,100580.27
2018-12-13T02:11:50.636Z,100579.99
2018-12-13T02:14:18.646Z,100582.63
2018-12-13T02:16:46.228Z,100576.89
2018-12-13T02:19:14.441Z,100583.02
2018-12-13T02:21:44.444Z,100571.64
2018-12-13T02:24:12.649Z,100577.81
2018-12-13T02:26:41.269Z,100571.41
2018-12-13T02:29:10.054Z,100567.77
2018-12-13T02:31:39.189Z,100577.96
2018-12-13T02:34:07.958Z,100573.31
2018-12-13T02:36:35.527Z,100569.06
2018-12-13T02:39:04.344Z,100562.94
2018-12-13T02:41:33.051Z,100567.91
2018-12-13T02:44:00.657Z,100564.93
2018-12-13T02:46:29.252Z,100559.73
2018-12-13T02:48:58.073Z,100556.75
2018-12-13T02:51:25.717Z,100557.27
2018-12-13T02:53:53.412Z,100551.66
2018-12-13T02:56:21.486Z,100551.27
2018-12-13T02:58:49.107Z,100547.45
2018-12-13T03:01:16.689Z,100537.55
2018-12-13T03:03:44.670Z,100538.86
2018-12-13T03:06:12.242Z,100535.87
2018-12-13T03:08:39.845Z,100538.55
2018-12-13T03:11:07.607Z,100539.47
2018-12-13T03:13:37.319Z,100536.05
2018-12-13T03:16:05.904Z,100539.59
2018-12-13T03:18:33.496Z,100541.41
2018-12-13T03:21:04.858Z,100543.21
2018-12-13T03:23:32.449Z,100543.21
2018-12-13T03:26:01.088Z,100539.59
2018-12-13T03:28:28.713Z,100532.81
2018-12-13T03:30:56.402Z,100534.23
2018-12-13T03:33:24.055Z,100531.01
2018-12-13T03:35:51.686Z,100529.13
2018-12-13T03:38:19.637Z,100524.16
2018-12-13T03:40:49.344Z,100521.04
2018-12-13T03:43:17.673Z,100523.14
2018-12-13T03:45:45.649Z,100514.87
2018-12-13T03:48:13.234Z,100518.28
2018-12-13T03:50:40.833Z,100515.53
2018-12-13T03:53:08.459Z,100508.53
2018-12-13T03:55:36.564Z,100500.70
2018-12-13T03:58:04.132Z,100499.11
2018-12-13T04:00:31.648Z,100505.89
2018-12-13T04:02:59.166Z,100506.58
2018-12-13T04:05:27.136Z,100504.56
2018-12-13T04:07:54.643Z,100509.98
2018-12-13T04:10:22.152Z,100507.13
2018-12-13T04:12:50.034Z,100505.55
2018-12-13T04:15:17.612Z,100502.17
2018-12-13T04:17:45.189Z,100504.13
2018-12-13T04:20:12.738Z,100501.27
2018-12-13T04:22:40.553Z,100499.64
2018-12-13T04:25:08.066Z,100500.67
2018-12-13T04:27:35.604Z,100498.53
2018-12-13T04:30:03.532Z,100499.97
2018-12-13T04:32:32.359Z,100494.32
2018-12-13T04:34:59.868Z,100490.94
2018-12-13T04:37:35.146Z,100490.19
2018-12-13T04:39:57.377Z,100490.27
2018-12-13T04:42:24.878Z,100492.09
2018-12-13T04:44:52.412Z,100486.97
2018-12-13T04:47:20.386Z,100487.41
2018-12-13T04:49:47.929Z,100482.64
2018-12-13T04:52:15.477Z,100476.16
2018-12-13T04:54:43.348Z,100474.05
2018-12-13T04:57:10.909Z,100465.39
2018-12-13T04:59:38.461Z,100466.30
2018-12-13T05:02:06.019Z,100467.66
2018-12-13T05:04:33.984Z,100461.66
2018-12-13T05:07:01.535Z,100466.98
2018-12-13T05:09:29.097Z,100465.79
2018-12-13T05:11:56.667Z,100467.69
2018-12-13T05:14:24.638Z,100466.09
2018-12-13T05:16:55.905Z,100465.30
2018-12-13T05:19:23.416Z,100467.92
2018-12-13T05:21:50.951Z,100459.34
2018-12-13T05:24:19.041Z,100459.38
2018-12-13T05:26:46.603Z,100452.47
2018-12-13T05:29:14.224Z,100453.73
2018-12-13T05:31:42.131Z,100449.29
2018-12-13T05:34:09.637Z,100453.14
2018-12-13T05:36:37.278Z,100455.41
2018-12-13T05:39:05.507Z,100447.19
2018-12-13T05:41:33.045Z,100448.53
2018-12-13T05:44:00.557Z,100453.49
2018-12-13T05:46:28.493Z,100456.16
2018-12-13T05:48:55.989Z,100464.13
2018-12-13T05:51:23.520Z,100462.45
2018-12-13T05:53:51.525Z,100461.19
2018-12-13T05:56:19.037Z,100463.45
2018-12-13T05:58:46.913Z,100464.06
2018-12-13T06:01:14.911Z,100469.86
2018-12-13T06:03:42.417Z,100465.67
2018-12-13T06:06:09.937Z,100460.69
2018-12-13T06:08:38.698Z,100461.75
2018-12-13T06:11:06.554Z,100464.11
2018-12-13T06:13:35.034Z,100465.59
2018-12-13T06:16:02.961Z,100476.58
2018-12-13T06:18:30.517Z,100477.89
2018-12-13T06:20:58.021Z,100484.94
2018-12-13T06:23:26.845Z,100485.81
2018-12-13T06:25:54.382Z,100486.72
2018-12-13T06:28:21.935Z,100485.34
2018-12-13T06:30:49.437Z,100490.52
2018-12-13T06:33:16.970Z,100480.80
2018-12-13T06:35:44.876Z,100491.72
2018-12-13T06:38:13.409Z,100489.89
2018-12-13T06:40:41.062Z,100492.52
2018-12-13T06:43:08.973Z,100497.75
2018-12-13T06:45:37.110Z,100501.28
2018-12-13T06:48:04.661Z,100498.16
2018-12-13T06:50:32.593Z,100503.36
2018-12-13T06:53:00.130Z,100500.23
2018-12-13T06:55:27.768Z,100502.89
2018-12-13T06:57:55.693Z,100504.70
2018-12-13T07:00:23.329Z,100505.14
2018-12-13T07:02:50.929Z,100506.02
2018-12-13T07:05:18.963Z,100505.61
2018-12-13T07:07:46.632Z,100500.41
2018-12-13T07:10:14.289Z,100498.73
2018-12-13T07:12:42.213Z,100494.41
2018-12-13T07:15:09.833Z,100491.78
2018-12-13T07:17:37.423Z,100491.82
2018-12-13T07:20:06.645Z,100493.64
2018-12-13T07:22:34.300Z,100495.82
2018-12-13T07:25:01.904Z,100498.84
2018-12-13T07:27:29.905Z,100495.41
2018-12-13T07:29:57.508Z,100499.75
2018-12-13T07:32:25.094Z,100498.44
2018-12-13T07:34:54.384Z,100512.44
2018-12-13T07:37:21.997Z,100505.05
2018-12-13T07:39:49.581Z,100507.73
2018-12-13T07:42:17.532Z,100502.98
2018-12-13T07:44:45.237Z,100506.50
2018-12-13T07:47:12.830Z,100511.23
2018-12-13T07:49:42.788Z,100510.30
2018-12-13T07:52:10.429Z,100505.52
2018-12-13T07:54:38.982Z,100512.00
2018-12-13T07:57:06.991Z,100507.97
2018-12-13T07:59:34.605Z,100505.69
2018-12-13T08:02:03.688Z,100507.33
2018-12-13T08:04:31.731Z,100510.23
2018-12-13T08:06:59.364Z,100507.08
2018-12-13T08:09:26.993Z,100505.22
2018-12-13T08:11:55.666Z,100510.39
2018-12-13T08:14:26.278Z,100510.80
2018-12-13T08:16:55.180Z,100515.52
2018-12-13T08:19:23.224Z,100518.47
2018-12-13T08:21:50.824Z,100518.22
2018-12-13T08:24:19.418Z,100515.74
2018-12-13T08:26:47.824Z,100512.86
2018-12-13T08:29:15.693Z,100522.29
2018-12-13T08:31:43.272Z,100517.30
2018-12-13T08:34:11.238Z,100515.51
2018-12-13T08:36:39.697Z,100515.00
2018-12-13T08:39:07.907Z,100509.24
2018-12-13T08:41:36.606Z,100518.37
2018-12-13T08:44:06.252Z,100516.16
2018-12-13T08:46:36.664Z,100508.25
2018-12-13T08:49:05.078Z,100513.02
2018-12-13T08:51:32.695Z,100514.70
2018-12-13T08:54:00.326Z,100503.66
2018-12-13T08:56:29.001Z,100499.13
2018-12-13T08:58:56.616Z,100500.28
2018-12-13T09:01:24.224Z,100496.23
2018-12-13T09:03:52.104Z,100497.86
2018-12-13T09:06:19.756Z,100486.85
2018-12-13T09:08:47.370Z,100489.08
2018-12-13T09:11:15.290Z,100493.37
2018-12-13T09:13:42.843Z,100492.89
2018-12-13T09:16:10.430Z,100493.65
2018-12-13T09:18:38.313Z,100492.17
2018-12-13T09:21:05.858Z,100496.42
2018-12-13T09:23:33.442Z,100490.62
2018-12-13T09:26:01.573Z,100484.30
2018-12-13T09:28:29.631Z,100485.80
2018-12-13T09:30:57.162Z,100482.45
2018-12-13T09:33:24.671Z,100476.94
2018-12-13T09:35:52.231Z,100474.89
2018-12-13T09:38:21.293Z,100478.09
2018-12-13T09:40:48.872Z,100476.31
2018-12-13T09:43:16.670Z,100474.25
2018-12-13T09:45:45.251Z,100467.13
2018-12-13T09:48:13.694Z,100470.73
2018-12-13T09:50:41.468Z,100466.02
2018-12-13T09:53:09.462Z,100466.77
2018-12-13T09:55:39.987Z,100455.28
2018-12-13T09:58:07.546Z,100454.99
2018-12-13T10:00:35.495Z,100455.97
2018-12-13T10:03:04.063Z,100455.61
2018-12-13T10:05:31.674Z,100452.14
2018-12-13T10:07:59.595Z,100446.70
2018-12-13T10:10:27.754Z,100452.28
2018-12-13T10:12:55.358Z,100445.23
2018-12-13T10:15:23.217Z,100439.16
2018-12-13T10:17:50.791Z,100437.64
2018-12-13T10:20:19.144Z,100435.30
2018-12-13T10:22:47.022Z,100437.48
2018-12-13T10:25:14.576Z,100443.13
2018-12-13T10:27:42.114Z,100439.17
2018-12-13T10:30:10.022Z,100439.45
2018-12-13T10:32:37.570Z,100441.20
2018-12-13T10:35:11.344Z,100429.37
2018-12-13T10:37:37.299Z,100427.72
2018-12-13T10:40:05.834Z,100422.48
2018-12-13T10:42:33.756Z,100420.48
2018-12-13T10:45:01.770Z,100416.84
2018-12-13T10:47:29.332Z,100410.34
2018-12-13T10:49:56.871Z,100405.61
2018-12-13T10:52:24.716Z,100410.03
2018-12-13T10:54:52.275Z,100410.35
2018-12-13T10:57:19.806Z,100403.48
2018-12-13T10:59:47.694Z,100406.44
2018-12-13T11:02:20.251Z,100406.05
2018-12-13T11:04:48.431Z,100406.96
2018-12-13T11:07:16.399Z,100401.62
2018-12-13T11:09:44.175Z,100389.90
2018-12-13T11:12:11.711Z,100391.27
2018-12-13T11:14:39.780Z,100394.13
2018-12-13T11:17:07.314Z,100392.62
2018-12-13T11:19:34.875Z,100389.34
2018-12-13T11:22:02.916Z,100391.70
2018-12-13T11:24:30.464Z,100384.03
2018-12-13T11:26:58.892Z,100382.93
2018-12-13T11:29:27.795Z,100383.13
2018-12-13T11:31:55.861Z,100381.34
2018-12-13T11:34:23.411Z,100373.50
2018-12-13T11:36:51.326Z,100373.69
2018-12-13T11:39:19.642Z,100371.92
2018-12-13T11:41:48.647Z,100368.97
2018-12-13T11:44:16.550Z,100364.91
2018-12-13T11:46:44.083Z,100359.64
2018-12-13T11:49:12.237Z,100360.27
2018-12-13T11:51:40.270Z,100359.66
2018-12-13T11:54:08.534Z,100364.41
2018-12-13T11:56:36.078Z,100360.48
2018-12-13T11:59:04.044Z,100360.41
2018-12-13T12:01:31.561Z,100362.91
2018-12-13T12:04:01.487Z,100357.33
2018-12-13T12:06:31.239Z,100362.81
2018-12-13T12:08:58.773Z,100361.88
2018-12-13T12:11:27.140Z,100365.28
2018-12-13T12:13:55.074Z,100356.57
2018-12-13T12:16:22.673Z,100357.08
2018-12-13T12:18:50.238Z,100347.97
2018-12-13T12:21:19.842Z,100341.46
2018-12-13T12:23:47.552Z,100345.56
2018-12-13T12:26:15.087Z,100337.28
2018-12-13T12:28:44.898Z,100338.91
2018-12-13T12:31:12.476Z,100337.94
2018-12-13T12:33:40.626Z,100339.08
2018-12-13T12:36:08.622Z,100328.08
2018-12-13T12:38:39.732Z,100327.42
2018-12-13T12:41:07.285Z,100322.44
2018-12-13T12:43:37.717Z,100321.49
2018-12-13T12:46:07.465Z,100319.62
2018-12-13T12:48:35.890Z,100318.86
2018-12-13T12:51:04.566Z,100321.13
2018-12-13T12:53:32.133Z,100318.31
2018-12-13T12:55:59.698Z,100328.95
2018-12-13T12:58:29.633Z,100332.30
2018-12-13T13:00:57.524Z,100333.83
2018-12-13T13:03:25.078Z,100333.73
2018-12-13T13:05:53.058Z,100331.84
2018-12-13T13:08:20.824Z,100321.41
2018-12-13T13:10:48.375Z,100312.49
2018-12-13T13:13:16.257Z,100309.02
2018-12-13T13:15:43.827Z,100313.45
2018-12-13T13:18:11.376Z,100314.44
2018-12-13T13:20:39.355Z,100311.64
2018-12-13T13:23:06.916Z,100308.86
2018-12-13T13:25:34.447Z,100311.64
2018-12-13T13:28:02.463Z,100305.28
2018-12-13T13:30:30.034Z,100303.27
2018-12-13T13:32:57.588Z,100302.50
2018-12-13T13:35:25.561Z,100300.16
2018-12-13T13:37:53.632Z,100299.16
2018-12-13T13:40:23.630Z,100299.17
2018-12-13T13:42:51.564Z,100306.45
2018-12-13T13:45:20.767Z,100304.66
2018-12-13T13:47:48.335Z,100305.83
2018-12-13T13:50:16.299Z,100299.28
2018-12-13T13:52:47.453Z,100307.09
2018-12-13T13:55:15.006Z,100302.79
2018-12-13T13:57:42.862Z,100303.58
2018-12-13T14:00:11.751Z,100308.50
2018-12-13T14:02:39.642Z,100307.69
2018-12-13T14:05:07.511Z,100308.34
2018-12-13T14:07:36.463Z,100308.23
2018-12-13T14:10:05.666Z,100311.02
2018-12-13T14:12:37.261Z,100312.45
2018-12-13T14:15:04.786Z,100316.16
2018-12-13T14:17:32.327Z,100324.06
2018-12-13T14:20:00.203Z,100323.38
2018-12-13T14:22:27.761Z,100324.63
2018-12-13T14:24:55.313Z,100332.80
2018-12-13T14:27:23.219Z,100328.39
2018-12-13T14:29:50.821Z,100332.31
2018-12-13T14:32:18.442Z,100332.23
2018-12-13T14:34:46.759Z,100334.83
2018-12-13T14:37:14.551Z,100325.16
2018-12-13T14:39:44.517Z,100335.41
2018-12-13T14:42:12.155Z,100330.34
2018-12-13T14:44:40.295Z,100329.62
2018-12-13T14:47:09.550Z,100333.17
2018-12-13T14:49:37.095Z,100329.17
2018-12-13T14:52:04.619Z,100327.91
2018-12-13T14:54:33.458Z,100332.92
2018-12-13T14:57:01.735Z,100337.46
2018-12-13T14:59:29.350Z,100324.23
2018-12-13T15:01:57.284Z,100332.75
2018-12-13T15:04:24.876Z,100341.23
2018-12-13T15:06:52.419Z,100328.28
2018-12-13T15:09:20.536Z,100330.66
2018-12-13T15:11:48.062Z,100333.09
2018-12-13T15:14:15.760Z,100334.16
2018-12-13T15:16:43.676Z,100338.77
2018-12-13T15:19:11.236Z,100345.98
2018-12-13T15:21:39.490Z,100339.20
2018-12-13T15:24:08.362Z,100342.02
2018-12-13T15:26:36.598Z,100345.27
2018-12-13T15:29:07.306Z,100344.98
2018-12-13T15:31:36.427Z,100345.91
2018-12-13T15:34:04.607Z,100345.91
2018-12-13T15:36:32.162Z,100349.01
2018-12-13T15:39:00.424Z,100345.06
2018-12-13T15:41:28.843Z,100347.22
2018-12-13T15:43:57.264Z,100346.72
2018-12-13T15:46:25.209Z,100345.45
2018-12-13T15:48:53.314Z,100343.28
2018-12-13T15:51:20.875Z,100340.99
2018-12-13T15:53:48.811Z,100340.41
2018-12-13T15:56:17.234Z,100339.84
2018-12-13T15:58:44.798Z,100338.38
2018-12-13T16:01:13.660Z,100341.64
2018-12-13T16:03:41.229Z,100337.03
2018-12-13T16:06:08.792Z,100342.53
2018-12-13T16:08:37.325Z,100343.59
2018-12-13T16:11:05.434Z,100341.61
2018-12-13T16:13:33.010Z,100338.73
2018-12-13T16:16:00.933Z,100330.71
2018-12-13T16:18:28.466Z,100339.27
2018-12-13T16:20:57.479Z,100335.67
2018-12-13T16:23:25.658Z,100329.88
2018-12-13T16:25:57.874Z,100333.29
2018-12-13T16:28:25.421Z,100336.34
2018-12-13T16:30:54.350Z,100332.79
2018-12-13T16:33:22.498Z,100326.72
2018-12-13T16:35:50.050Z,100323.98
2018-12-13T16:38:18.506Z,100323.50
2018-12-13T16:40:46.055Z,100327.33
2018-12-13T16:43:14.269Z,100328.56
2018-12-13T16:45:43.924Z,100330.30
2018-12-13T16:48:12.710Z,100326.80
2018-12-13T16:50:40.976Z,100326.80
2018-12-13T16:53:09.514Z,100322.86
2018-12-13T16:55:37.358Z,100324.11
2018-12-13T16:58:08.568Z,100328.56
2018-12-13T17:00:36.491Z,100323.50
2018-12-13T17:03:04.703Z,100318.38
2018-12-13T17:05:32.570Z,100312.73
2018-12-13T17:08:00.464Z,100320.42
2018-12-13T17:10:28.885Z,100323.64
2018-12-13T17:12:56.477Z,100321.45
2018-12-13T17:15:24.487Z,100328.91
2018-12-13T17:17:52.271Z,100325.73
2018-12-13T17:20:19.783Z,100324.77
2018-12-13T17:22:47.751Z,100330.86
2018-12-13T17:25:16.205Z,100331.58
2018-12-13T17:27:44.752Z,100325.88
2018-12-13T17:30:12.581Z,100327.64
2018-12-13T17:32:42.567Z,100323.64
2018-12-13T17:35:11.809Z,100319.36
2018-12-13T17:37:40.450Z,100327.25
2018-12-13T17:40:08.657Z,100323.45
2018-12-13T17:42:36.902Z,100332.11
2018-12-13T17:45:04.874Z,100338.69
2018-12-13T17:47:32.398Z,100328.56
2018-12-13T17:49:59.910Z,100328.17
2018-12-13T17:52:27.898Z,100327.25
2018-12-13T17:54:55.434Z,100330.66
2018-12-13T17:57:22.996Z,100332.39
2018-12-13T17:59:50.955Z,100335.81
2018-12-13T18:02:18.546Z,100330.99
2018-12-13T18:04:46.286Z,100332.31
2018-12-13T18:07:15.215Z,100330.55
2018-12-13T18:09:43.658Z,100330.99
2018-12-13T18:12:11.199Z,100327.97
2018-12-13T18:14:39.214Z,100327.64
2018-12-13T18:17:06.772Z,100328.56
2018-12-13T18:19:34.311Z,100333.29
2018-12-13T18:22:03.712Z,100335.52
2018-12-13T18:24:32.555Z,100338.16
2018-12-13T18:27:02.302Z,100331.14
2018-12-13T18:29:30.539Z,100333.29
2018-12-13T18:31:59.713Z,100332.50
2018-12-13T18:34:28.584Z,100331.19
2018-12-13T18:36:59.095Z,100340.49
2018-12-13T18:39:26.693Z,100351.91
2018-12-13T18:41:54.898Z,100349.63
2018-12-13T18:44:22.827Z,100348.16
2018-12-13T18:46:50.575Z,100352.37
2018-12-13T18:49:20.010Z,100340.65
2018-12-13T18:51:47.846Z,100335.63
2018-12-13T18:54:16.214Z,100334.98
2018-12-13T18:56:43.769Z,100340.98
2018-12-13T18:59:11.971Z,100337.72
2018-12-13T19:01:39.505Z,100337.91
2018-12-13T19:04:09.412Z,100339.92
2018-12-13T19:06:39.799Z,100339.31
2018-12-13T19:09:07.480Z,100337.70
2018-12-13T19:11:35.597Z,100333.98
2018-12-13T19:14:04.205Z,100331.14
2018-12-13T19:16:32.505Z,100338.22
2018-12-13T19:19:00.208Z,100338.39
2018-12-13T19:21:29.353Z,100335.99
2018-12-13T19:23:56.958Z,100347.45
2018-12-13T19:26:25.443Z,100344.88
2018-12-13T19:31:53.936Z,100356.45
2018-12-13T19:34:21.820Z,100355.31
2018-12-13T19:36:49.503Z,100358.94
2018-12-13T19:39:17.102Z,100352.06
2018-12-13T19:41:46.642Z,100359.02
2018-12-13T19:44:15.731Z,100349.83
2018-12-13T19:46:45.906Z,100352.37
2018-12-13T19:49:14.039Z,100354.60
2018-12-13T19:51:41.554Z,100362.99
2018-12-13T19:54:10.094Z,100359.97
2018-12-13T19:56:38.058Z,100354.33
2018-12-13T19:59:05.586Z,100364.07
2018-12-13T20:01:34.091Z,100360.58
2018-12-13T20:04:01.641Z,100364.63
2018-12-13T20:06:29.299Z,100359.39
2018-12-13T20:08:57.283Z,100367.70
2018-12-13T20:11:24.842Z,100371.23
2018-12-13T20:13:53.750Z,100372.50
2018-12-13T20:16:21.722Z,100371.23
2018-12-13T20:18:49.251Z,100368.17
2018-12-13T20:21:16.787Z,100369.01
2018-12-13T20:24:31.457Z,100377.79
2018-12-13T20:26:59.016Z,100377.91
2018-12-13T20:29:27.989Z,100379.82
2018-12-13T20:31:55.545Z,100377.80
2018-12-13T20:34:23.080Z,100381.81
2018-12-13T20:36:51.035Z,100386.14
2018-12-13T20:39:18.624Z,100385.34
2018-12-13T20:41:46.146Z,100371.41
2018-12-13T20:44:14.492Z,100379.27
2018-12-13T20:46:42.009Z,100386.73
2018-12-13T20:49:11.248Z,100387.09
2018-12-13T20:51:40.131Z,100384.43
2018-12-13T20:54:08.655Z,100384.23
2018-12-13T20:56:36.193Z,100380.81
2018-12-13T20:59:04.184Z,100383.85
2018-12-13T21:01:32.593Z,100381.77
2018-12-13T21:04:00.139Z,100377.84
2018-12-13T21:06:28.002Z,100381.39
2018-12-13T21:08:55.544Z,100381.97
2018-12-13T21:11:23.213Z,100383.41
2018-12-13T21:13:51.166Z,100389.75
2018-12-13T21:16:20.345Z,100393.91
2018-12-13T21:18:48.607Z,100389.39
2018-12-13T21:21:16.606Z,100391.05
2018-12-13T21:23:44.160Z,100384.80
2018-12-13T21:26:11.782Z,100390.70
2018-12-13T21:28:39.633Z,100386.99
2018-12-13T21:31:07.169Z,100377.77
2018-12-13T21:33:34.690Z,100382.84
2018-12-13T21:36:02.778Z,100381.74
2018-12-13T21:38:30.415Z,100387.91
2018-12-13T21:40:58.551Z,100388.00
2018-12-13T21:43:26.102Z,100392.37
2018-12-13T21:45:53.626Z,100393.51
2018-12-13T21:48:22.357Z,100393.16
2018-12-13T21:50:49.883Z,100384.98
2018-12-13T21:53:17.524Z,100382.14
2018-12-13T21:55:45.415Z,100377.98
2018-12-13T21:58:13.218Z,100374.73
2018-12-13T22:00:41.479Z,100374.59
2018-12-13T22:03:10.378Z,100372.89
2018-12-13T22:05:38.019Z,100370.36
2018-12-13T22:08:05.538Z,100367.13
2018-12-13T22:10:33.459Z,100364.34
2018-12-13T22:13:01.064Z,100362.50
2018-12-13T22:15:28.618Z,100364.64
2018-12-13T22:17:56.193Z,100381.05
2018-12-13T22:20:24.223Z,100379.55
2018-12-13T22:22:52.797Z,100381.91
2018-12-13T22:25:20.359Z,100379.89
2018-12-13T22:27:48.217Z,100377.91
2018-12-13T22:30:15.820Z,100382.28
2018-12-13T22:32:43.375Z,100385.66
2018-12-13T22:35:10.928Z,100388.46
2018-12-13T22:37:38.488Z,100391.19
2018-12-13T22:40:06.042Z,100389.74
2018-12-13T22:42:35.075Z,100393.55
2018-12-13T22:45:02.687Z,100391.32
2018-12-13T22:47:30.231Z,100387.30
2018-12-13T22:49:57.787Z,100390.63
2018-12-13T22:52:25.662Z,100391.89
2018-12-13T22:54:53.186Z,100390.23
2018-12-13T22:57:20.714Z,100388.66
2018-12-13T22:59:48.639Z,100381.78
2018-12-13T23:02:19.330Z,100381.44
2018-12-13T23:04:47.519Z,100379.81
2018-12-13T23:07:15.403Z,100387.38
2018-12-13T23:09:42.928Z,100381.91
2018-12-13T23:12:10.492Z,100383.03
2018-12-13T23:14:38.266Z,100380.22
2018-12-13T23:17:06.243Z,100380.52
2018-12-13T23:19:33.834Z,100375.52
2018-12-13T23:22:01.403Z,100382.80
2018-12-13T23:24:28.915Z,100378.72
2018-12-13T23:26:56.924Z,100381.14
2018-12-13T23:29:24.451Z,100382.61
2018-12-13T23:31:52.007Z,100380.66
2018-12-13T23:34:20.915Z,100381.25
2018-12-13T23:36:48.468Z,100378.28
2018-12-13T23:39:16.334Z,100385.70
2018-12-13T23:41:43.916Z,100378.63
2018-12-13T23:44:11.878Z,100379.95
2018-12-13T23:46:39.434Z,100382.48
2018-12-13T23:49:06.975Z,100387.97
2018-12-13T23:51:34.535Z,100388.68
2018-12-13T23:54:02.446Z,100385.03
2018-12-13T23:56:30.012Z,100375.66
2018-12-13T23:58:57.914Z,100378.98
